Corinth, North Dakota
Current Conditions -  °F | °C
As of 9:15 PM on Friday 31 Oct 2014 (Local Time) from KD50 Reporting Station
Clear Clear  
Wind Chill: 27°   Ceiling: Unl
Heat Index: 37°   Visibility: 10mi
Dew Point: 18°   Wind: 21mph
Humidity: 45%   Direction: 170°S
Pressure: 29.93"   Gusts: 26mph
Location:  48.59°N, 103.406°W
Report Text: KD50 010215Z AUTO 17018G23KT 10SM CLR 03/M08 A2993 RMK AO2
Loading
Personal Weather Stations






























Interactive Weather Map
Tropical Storm Tracking
New forecast layout! Learn more

10-Day Weather Forecast

Advertisements
Track Severe Weather on mobile